Time;durP1;ratioP1;P1;durP2;ratioP2;P2;SDS_P1;SDS_P2;PMS_P1;PMS_P2;Temp;Humidity;BMP_temperature;BMP_pressure;BME280_temperature;BME280_humidity;BME280_pressure;Samples;Min_cycle;Max_cycle;Signal;HPM_P1;HPM_P2
2021/12/30 00:02:00;;;;;;;33.23;13.33;;;12.20;99.90;;;;;;5032066;28;20463;-78
2021/12/30 00:04:28;;;;;;;35.10;13.83;;;12.30;99.90;;;;;;5032559;28;20555;-80
2021/12/30 00:06:55;;;;;;;25.03;12.10;;;12.20;99.90;;;;;;5032797;28;20482;-79
2021/12/30 00:09:22;;;;;;;27.47;13.07;;;12.20;99.90;;;;;;5051279;28;20543;-80
2021/12/30 00:11:50;;;;;;;32.33;12.73;;;12.20;99.90;;;;;;5049842;28;20979;-80
2021/12/30 00:14:16;;;;;;;35.60;15.30;;;12.10;99.90;;;;;;5024243;28;20469;-79
2021/12/30 00:16:43;;;;;;;25.70;13.43;;;12.10;99.90;;;;;;5019357;28;20490;-78
2021/12/30 00:19:12;;;;;;;30.70;14.90;;;12.10;99.90;;;;;;5021723;28;20452;-79
2021/12/30 00:21:40;;;;;;;34.33;15.27;;;12.10;99.90;;;;;;5026500;28;20460;-78
2021/12/30 00:24:09;;;;;;;25.27;13.73;;;12.10;99.90;;;;;;5022845;28;20472;-78
2021/12/30 00:26:36;;;;;;;31.50;14.03;;;12.10;99.90;;;;;;5025191;28;20449;-81
2021/12/30 00:29:03;;;;;;;26.03;13.93;;;12.00;99.90;;;;;;5021957;28;20456;-78
2021/12/30 00:31:31;;;;;;;20.07;11.70;;;12.00;99.90;;;;;;5019958;28;20460;-80
2021/12/30 00:33:58;;;;;;;29.77;11.83;;;12.00;99.90;;;;;;5026276;28;20497;-79
2021/12/30 00:36:25;;;;;;;22.53;12.50;;;12.00;99.90;;;;;;5028355;28;20452;-79
2021/12/30 00:38:53;;;;;;;29.27;12.60;;;12.10;99.90;;;;;;5033035;28;20491;-77
2021/12/30 00:41:20;;;;;;;23.80;11.33;;;12.00;99.90;;;;;;5031291;28;20452;-77
2021/12/30 00:43:47;;;;;;;23.83;11.57;;;11.90;99.90;;;;;;5024176;28;20930;-79
2021/12/30 00:46:14;;;;;;;23.90;10.20;;;11.90;99.90;;;;;;5026992;28;20463;-77
2021/12/30 00:48:41;;;;;;;25.17;11.00;;;12.00;99.90;;;;;;5031981;28;20828;-79
2021/12/30 00:51:09;;;;;;;21.30;10.07;;;12.00;99.90;;;;;;5039876;28;20465;-78
2021/12/30 00:53:36;;;;;;;19.77;9.63;;;12.00;99.90;;;;;;5035839;28;20475;-79
2021/12/30 00:56:05;;;;;;;26.93;9.17;;;12.10;99.90;;;;;;5039394;28;20461;-79
2021/12/30 00:58:31;;;;;;;19.20;8.00;;;12.10;99.90;;;;;;5017263;28;21017;-79
2021/12/30 01:00:59;;;;;;;23.10;10.50;;;12.10;99.90;;;;;;5042727;28;20456;-79
2021/12/30 01:03:27;;;;;;;27.47;10.70;;;12.10;99.90;;;;;;5038193;28;20491;-78
2021/12/30 01:05:55;;;;;;;27.13;9.77;;;12.10;99.90;;;;;;5031978;28;20453;-78
2021/12/30 01:08:22;;;;;;;24.63;11.70;;;12.20;99.90;;;;;;5031489;28;20455;-78
2021/12/30 01:10:48;;;;;;;30.03;10.90;;;12.20;99.90;;;;;;5019679;28;20457;-79
2021/12/30 01:13:22;;;;;;;22.07;10.90;;;12.20;99.90;;;;;;5018110;28;20482;-79
2021/12/30 01:15:58;;;;;;;19.93;10.03;;;12.30;99.90;;;;;;5012228;28;20463;-78
2021/12/30 01:18:34;;;;;;;29.10;12.20;;;12.20;99.90;;;;;;5029097;28;20479;-79
2021/12/30 01:21:02;;;;;;;26.00;10.50;;;12.20;99.90;;;;;;5032029;28;20455;-79
2021/12/30 01:23:29;;;;;;;19.23;8.97;;;12.20;99.90;;;;;;5032382;28;20483;-79
2021/12/30 01:25:56;;;;;;;30.30;10.00;;;12.20;99.90;;;;;;5032904;28;20454;-78
2021/12/30 01:28:26;;;;;;;28.40;9.07;;;12.20;99.90;;;;;;5041152;28;20447;-79
2021/12/30 01:30:53;;;;;;;22.03;8.43;;;12.10;99.90;;;;;;5055706;28;20457;-79
2021/12/30 01:33:20;;;;;;;15.70;6.70;;;12.20;99.90;;;;;;5043169;28;20480;-79
2021/12/30 01:35:46;;;;;;;25.20;8.03;;;12.20;99.90;;;;;;5046787;28;20889;-78
2021/12/30 01:38:16;;;;;;;26.80;7.17;;;12.20;99.90;;;;;;5050391;28;20567;-78
2021/12/30 01:40:45;;;;;;;22.50;8.40;;;12.20;99.90;;;;;;5035480;28;20935;-78
2021/12/30 01:43:13;;;;;;;15.73;7.43;;;12.20;99.90;;;;;;5033275;28;20484;-80
2021/12/30 01:45:43;;;;;;;26.93;9.07;;;12.20;99.90;;;;;;5030074;28;20454;-79
2021/12/30 01:48:11;;;;;;;23.00;8.73;;;12.20;99.90;;;;;;5038308;28;20539;-79
2021/12/30 01:50:38;;;;;;;25.40;8.23;;;12.20;99.90;;;;;;5048522;28;20989;-80
2021/12/30 01:53:06;;;;;;;16.83;8.10;;;12.30;99.90;;;;;;5034994;28;20499;-80
2021/12/30 01:55:35;;;;;;;20.43;7.67;;;12.30;99.90;;;;;;5034421;28;20449;-79
2021/12/30 01:58:03;;;;;;;23.17;6.87;;;12.30;99.90;;;;;;5030768;28;20483;-78
2021/12/30 02:00:32;;;;;;;21.50;6.80;;;12.30;99.90;;;;;;5058216;28;20461;-80
2021/12/30 02:03:01;;;;;;;21.37;8.30;;;12.30;99.90;;;;;;5049339;28;20488;-80
2021/12/30 02:05:28;;;;;;;20.67;7.00;;;12.30;99.90;;;;;;5045968;28;20448;-79
2021/12/30 02:07:55;;;;;;;24.03;8.00;;;12.30;99.90;;;;;;5040536;28;20808;-79
2021/12/30 02:10:23;;;;;;;32.00;8.00;;;12.30;99.90;;;;;;5021591;28;20545;-80
2021/12/30 02:12:49;;;;;;;22.90;6.50;;;12.30;99.90;;;;;;5039740;28;20462;-78
2021/12/30 02:15:18;;;;;;;22.93;8.00;;;12.40;99.90;;;;;;5037692;28;20455;-80
2021/12/30 02:17:48;;;;;;;22.67;7.93;;;12.40;99.90;;;;;;5042321;28;21014;-80
2021/12/30 02:20:58;;;;;;;21.90;6.93;;;12.40;99.90;;;;;;5049079;28;20510;-80
2021/12/30 02:23:28;;;;;;;20.40;6.50;;;12.40;99.90;;;;;;5034565;28;20678;-80
2021/12/30 02:25:57;;;;;;;16.47;7.77;;;12.40;99.90;;;;;;5038275;28;20808;-80
2021/12/30 02:28:26;;;;;;;21.03;7.50;;;12.40;99.90;;;;;;5038536;28;20456;-80
2021/12/30 02:30:56;;;;;;;24.87;7.77;;;12.40;99.90;;;;;;5037692;28;20878;-79
2021/12/30 02:33:23;;;;;;;18.70;6.80;;;12.40;99.90;;;;;;5049555;28;20474;-80
2021/12/30 02:35:52;;;;;;;31.13;7.50;;;12.40;99.90;;;;;;5055965;28;20469;-80
2021/12/30 02:38:19;;;;;;;27.37;7.80;;;12.50;99.90;;;;;;5045660;28;20484;-79
2021/12/30 02:40:49;;;;;;;20.13;6.80;;;12.50;99.90;;;;;;5037373;28;20449;-80
2021/12/30 02:43:19;;;;;;;25.87;7.73;;;12.50;99.90;;;;;;5038090;28;20549;-79
2021/12/30 02:45:47;;;;;;;21.00;7.47;;;12.40;99.90;;;;;;5051909;28;20947;-80
2021/12/30 02:48:16;;;;;;;25.30;7.57;;;12.50;99.90;;;;;;5043175;28;20452;-79
2021/12/30 02:50:44;;;;;;;21.87;6.80;;;12.40;99.90;;;;;;5036994;28;20461;-80
2021/12/30 02:53:14;;;;;;;17.47;6.80;;;12.50;99.90;;;;;;5049442;28;20539;-79
2021/12/30 02:55:41;;;;;;;18.00;6.17;;;12.50;99.90;;;;;;5057769;28;20474;-79
2021/12/30 02:58:08;;;;;;;16.03;5.53;;;12.50;99.90;;;;;;5045819;28;20488;-79
2021/12/30 03:00:36;;;;;;;26.03;7.10;;;12.50;99.90;;;;;;5039654;28;20472;-79
2021/12/30 03:03:03;;;;;;;21.03;6.63;;;12.50;99.90;;;;;;5057513;28;20484;-80
2021/12/30 03:05:30;;;;;;;17.47;5.53;;;12.60;99.90;;;;;;5055915;28;20442;-80
2021/12/30 03:07:57;;;;;;;23.43;7.43;;;12.60;99.90;;;;;;5036882;28;20447;-80
2021/12/30 03:10:28;;;;;;;16.00;5.27;;;12.50;99.90;;;;;;5037291;28;20447;-80
2021/12/30 03:12:58;;;;;;;16.53;5.40;;;12.50;99.90;;;;;;5060287;28;20508;-80
2021/12/30 03:15:26;;;;;;;23.70;7.20;;;12.50;99.90;;;;;;5074509;28;20450;-80
2021/12/30 03:17:53;;;;;;;19.43;5.10;;;12.40;99.90;;;;;;5048521;28;20506;-80
2021/12/30 03:20:20;;;;;;;18.57;5.67;;;12.40;99.90;;;;;;5039495;28;20451;-80
2021/12/30 03:22:47;;;;;;;22.23;4.67;;;12.40;99.90;;;;;;5056747;28;20459;-80
2021/12/30 03:25:18;;;;;;;22.83;5.20;;;12.40;99.90;;;;;;5053665;28;20487;-80
2021/12/30 03:27:46;;;;;;;14.77;5.10;;;12.40;99.90;;;;;;5036209;28;20449;-80
2021/12/30 03:30:15;;;;;;;15.40;5.30;;;12.50;99.90;;;;;;5036409;28;20456;-79
2021/12/30 03:32:43;;;;;;;27.23;7.10;;;12.40;99.90;;;;;;5036349;28;20827;-79
2021/12/30 03:35:10;;;;;;;18.43;6.03;;;12.50;99.90;;;;;;5043206;28;20828;-80
2021/12/30 03:37:37;;;;;;;22.87;7.17;;;12.40;99.90;;;;;;5051975;28;20452;-80
2021/12/30 03:40:07;;;;;;;33.67;9.80;;;12.50;99.90;;;;;;5042203;28;20453;-79
2021/12/30 03:42:34;;;;;;;14.47;6.07;;;12.40;99.90;;;;;;5056302;28;20450;-80
2021/12/30 03:45:03;;;;;;;25.73;7.30;;;12.40;99.90;;;;;;5051224;28;20476;-80
2021/12/30 03:47:30;;;;;;;21.00;9.23;;;12.50;99.90;;;;;;5052389;28;21169;-80
2021/12/30 03:49:57;;;;;;;19.03;7.93;;;12.50;99.90;;;;;;5039620;28;20489;-80
2021/12/30 03:52:28;;;;;;;15.40;7.60;;;12.50;99.90;;;;;;5055607;28;20817;-80
2021/12/30 03:54:55;;;;;;;26.57;9.47;;;12.50;99.90;;;;;;5052194;28;20472;-79
2021/12/30 03:57:22;;;;;;;22.07;9.37;;;12.50;99.90;;;;;;5035654;28;20448;-80
2021/12/30 03:59:49;;;;;;;20.63;7.77;;;12.50;99.90;;;;;;5037545;28;21014;-80
2021/12/30 04:02:17;;;;;;;22.60;8.80;;;12.50;99.90;;;;;;5055017;28;20492;-79
2021/12/30 04:04:44;;;;;;;19.57;7.87;;;12.60;99.90;;;;;;5051152;28;20992;-80
2021/12/30 04:07:11;;;;;;;18.03;8.30;;;12.60;99.90;;;;;;5035743;28;20467;-80
2021/12/30 04:09:38;;;;;;;20.33;6.93;;;12.60;99.90;;;;;;5035850;28;20452;-80
2021/12/30 04:12:05;;;;;;;14.70;6.43;;;12.60;99.90;;;;;;5035328;28;20460;-80
2021/12/30 04:14:32;;;;;;;20.53;8.17;;;12.60;99.90;;;;;;5035660;28;20462;-79
2021/12/30 04:17:00;;;;;;;16.23;7.00;;;12.60;99.90;;;;;;5035894;28;20456;-80
2021/12/30 04:19:28;;;;;;;15.23;6.70;;;12.60;99.90;;;;;;5055245;28;20487;-80
2021/12/30 04:21:56;;;;;;;16.47;6.83;;;12.70;99.90;;;;;;5054786;28;20459;-79
2021/12/30 04:24:24;;;;;;;21.83;8.07;;;12.80;99.90;;;;;;5055639;28;20467;-80
2021/12/30 04:26:51;;;;;;;20.67;7.33;;;12.80;99.90;;;;;;5043931;28;20460;-79
2021/12/30 04:29:18;;;;;;;16.13;7.80;;;12.80;99.90;;;;;;5055580;28;20455;-80
2021/12/30 04:31:45;;;;;;;17.20;7.40;;;12.90;99.90;;;;;;5055222;28;20456;-80
2021/12/30 04:34:13;;;;;;;17.30;6.30;;;12.80;99.90;;;;;;5037789;28;20472;-80
2021/12/30 04:36:41;;;;;;;14.80;6.83;;;12.80;99.90;;;;;;5035943;28;20460;-80
2021/12/30 04:39:09;;;;;;;14.67;7.77;;;12.80;99.90;;;;;;5015551;28;20487;-80
2021/12/30 04:41:36;;;;;;;14.27;7.47;;;12.70;99.90;;;;;;5015558;28;20449;-79
2021/12/30 04:44:03;;;;;;;19.97;7.40;;;12.70;99.90;;;;;;5015210;28;20471;-79
2021/12/30 04:46:30;;;;;;;14.33;7.13;;;12.70;99.90;;;;;;5022350;28;20474;-79
2021/12/30 04:48:57;;;;;;;17.60;9.87;;;12.70;99.90;;;;;;5032201;28;20877;-79
2021/12/30 04:51:23;;;;;;;17.30;6.87;;;12.70;99.90;;;;;;5029303;28;20471;-78
2021/12/30 04:53:52;;;;;;;15.30;7.40;;;12.70;99.90;;;;;;5051835;28;20485;-79
2021/12/30 04:56:19;;;;;;;15.43;7.13;;;12.70;99.90;;;;;;5049314;28;20458;-79
2021/12/30 04:58:46;;;;;;;13.33;7.70;;;12.70;99.90;;;;;;5050874;28;20486;-80
2021/12/30 05:01:13;;;;;;;10.80;6.70;;;12.60;99.90;;;;;;5036244;28;20470;-80
2021/12/30 05:03:39;;;;;;;17.17;6.60;;;12.70;99.90;;;;;;5031980;28;20853;-80
2021/12/30 05:06:06;;;;;;;12.63;5.80;;;12.70;99.90;;;;;;5043450;28;20467;-79
2021/12/30 05:08:33;;;;;;;11.23;5.60;;;12.60;99.90;;;;;;5039602;28;20460;-80
2021/12/30 05:11:01;;;;;;;10.23;5.17;;;12.60;99.90;;;;;;5039991;28;20460;-80
2021/12/30 05:13:28;;;;;;;11.57;5.90;;;12.60;99.90;;;;;;5050315;28;20542;-80
2021/12/30 05:15:55;;;;;;;7.03;4.20;;;12.60;99.90;;;;;;5052460;28;20460;-79
2021/12/30 05:18:29;;;;;;;5.80;3.20;;;12.70;99.90;;;;;;5038353;28;20494;-79
2021/12/30 05:20:56;;;;;;;7.33;4.07;;;12.70;99.90;;;;;;5038538;28;20460;-80
2021/12/30 05:23:23;;;;;;;3.73;2.40;;;12.70;99.90;;;;;;5038040;28;21198;-80
2021/12/30 05:25:50;;;;;;;5.57;2.80;;;12.70;99.90;;;;;;5041024;28;20461;-79
2021/12/30 05:28:18;;;;;;;5.67;2.23;;;12.80;99.90;;;;;;5038046;28;20463;-81
2021/12/30 05:30:45;;;;;;;30.93;18.57;;;12.80;99.90;;;;;;5038311;28;20954;-80
2021/12/30 05:33:12;;;;;;;19.50;9.23;;;12.70;99.90;;;;;;5029752;28;20483;-80
2021/12/30 05:35:39;;;;;;;5.47;3.33;;;12.70;99.90;;;;;;5038078;28;20462;-80
2021/12/30 05:38:06;;;;;;;5.87;1.97;;;12.80;99.90;;;;;;5038390;28;20452;-79
2021/12/30 05:40:33;;;;;;;5.90;2.50;;;12.80;99.90;;;;;;5041550;28;20463;-80
2021/12/30 05:43:00;;;;;;;2.80;2.00;;;12.90;99.90;;;;;;5038529;28;20474;-80
2021/12/30 05:45:29;;;;;;;3.87;1.80;;;12.90;99.90;;;;;;5057419;28;20466;-79
2021/12/30 05:47:56;;;;;;;3.00;1.83;;;12.90;99.90;;;;;;5040379;28;20456;-80
2021/12/30 05:50:30;;;;;;;2.93;1.67;;;12.90;99.90;;;;;;5055850;28;20455;-81
2021/12/30 05:52:58;;;;;;;2.40;1.30;;;12.90;99.90;;;;;;5042317;28;20486;-79
2021/12/30 05:55:25;;;;;;;1.70;1.10;;;12.90;99.90;;;;;;5038648;28;20452;-80
2021/12/30 05:57:54;;;;;;;5.40;1.80;;;12.90;99.90;;;;;;5036868;28;20456;-80
2021/12/30 06:00:22;;;;;;;2.43;1.30;;;12.90;99.90;;;;;;5037670;28;20523;-80
2021/12/30 06:02:51;;;;;;;4.10;1.40;;;12.90;99.90;;;;;;5050695;28;20459;-79
2021/12/30 06:05:17;;;;;;;2.20;1.20;;;12.90;99.90;;;;;;5052301;28;20458;-80
2021/12/30 06:07:45;;;;;;;2.03;1.30;;;13.00;99.90;;;;;;5037500;28;20462;-79
2021/12/30 06:10:12;;;;;;;2.53;1.50;;;12.90;99.90;;;;;;5041382;28;20445;-79
2021/12/30 06:12:42;;;;;;;2.30;1.33;;;13.00;99.90;;;;;;5058763;28;20458;-79
2021/12/30 06:15:10;;;;;;;2.67;1.50;;;13.00;99.90;;;;;;5053853;28;20480;-81
2021/12/30 06:17:38;;;;;;;2.30;1.47;;;13.00;99.90;;;;;;5038594;28;20542;-81
2021/12/30 06:20:09;;;;;;;5.93;2.40;;;13.00;99.90;;;;;;5039112;28;20527;-81
2021/12/30 06:22:36;;;;;;;3.67;2.63;;;13.00;99.90;;;;;;5032918;28;20462;-82
2021/12/30 06:25:03;;;;;;;4.40;3.47;;;13.00;99.90;;;;;;5034745;28;20462;-79
2021/12/30 06:27:30;;;;;;;5.87;3.93;;;13.00;99.90;;;;;;5047616;28;20985;-80
2021/12/30 06:29:57;;;;;;;6.90;4.40;;;13.10;99.90;;;;;;5054594;28;20462;-81
2021/12/30 06:32:24;;;;;;;5.33;4.50;;;13.10;99.90;;;;;;5040239;28;20457;-81
2021/12/30 06:34:50;;;;;;;6.87;4.60;;;13.10;99.90;;;;;;5044126;28;20480;-81
2021/12/30 06:37:19;;;;;;;6.67;3.87;;;13.10;99.90;;;;;;5048845;28;21003;-81
2021/12/30 06:39:45;;;;;;;9.10;3.50;;;13.20;99.90;;;;;;5048375;28;20582;-81
2021/12/30 06:42:12;;;;;;;5.47;4.20;;;13.20;99.90;;;;;;5021140;28;20935;-81
2021/12/30 06:44:39;;;;;;;5.83;4.03;;;13.20;99.90;;;;;;5054748;28;20558;-80
2021/12/30 06:47:06;;;;;;;4.80;3.53;;;13.20;99.90;;;;;;5053801;28;20536;-81
2021/12/30 06:49:36;;;;;;;5.50;3.97;;;13.20;99.90;;;;;;5053283;28;20453;-81
2021/12/30 06:52:05;;;;;;;6.83;4.50;;;13.20;99.90;;;;;;5058723;28;20513;-82
2021/12/30 06:54:33;;;;;;;9.17;4.30;;;13.20;99.90;;;;;;5046463;28;20485;-82
2021/12/30 06:57:01;;;;;;;9.10;5.57;;;13.30;99.90;;;;;;5038836;28;20527;-81
2021/12/30 06:59:28;;;;;;;10.10;7.10;;;13.30;99.90;;;;;;5038385;28;20487;-82
2021/12/30 07:01:57;;;;;;;16.40;7.87;;;13.30;99.90;;;;;;5038245;28;20466;-81
2021/12/30 07:04:23;;;;;;;8.97;7.03;;;13.30;99.90;;;;;;5057280;28;20476;-81
2021/12/30 07:06:50;;;;;;;15.57;10.13;;;13.40;99.90;;;;;;5050927;28;20450;-81
2021/12/30 07:09:17;;;;;;;13.03;9.20;;;13.40;99.90;;;;;;5054141;28;20456;-82
2021/12/30 07:11:48;;;;;;;10.90;8.73;;;13.40;99.90;;;;;;5057236;28;20465;-82
2021/12/30 07:14:16;;;;;;;14.10;10.20;;;13.40;99.90;;;;;;5041269;28;20503;-79
2021/12/30 07:16:42;;;;;;;14.07;10.77;;;13.40;99.90;;;;;;5037358;28;20456;-79
2021/12/30 07:19:09;;;;;;;11.70;8.80;;;13.40;99.90;;;;;;5037960;28;20866;-81
2021/12/30 07:21:36;;;;;;;14.60;11.00;;;13.50;99.90;;;;;;5055475;28;20975;-81
2021/12/30 07:24:03;;;;;;;13.20;10.70;;;13.50;99.90;;;;;;5044371;28;20482;-79
2021/12/30 07:26:30;;;;;;;13.63;10.50;;;13.50;99.90;;;;;;5036747;28;20449;-81
2021/12/30 07:28:59;;;;;;;12.73;11.00;;;13.50;99.90;;;;;;5050135;28;20452;-81
2021/12/30 07:31:26;;;;;;;13.37;10.40;;;13.50;99.90;;;;;;5045279;28;20545;-79
2021/12/30 07:33:53;;;;;;;13.13;9.37;;;13.50;99.90;;;;;;5047100;28;20475;-81
2021/12/30 07:36:20;;;;;;;13.40;10.80;;;13.60;99.90;;;;;;5045848;28;20470;-79
2021/12/30 07:38:48;;;;;;;13.50;10.40;;;13.50;99.90;;;;;;5057338;28;20455;-80
2021/12/30 07:41:15;;;;;;;11.33;10.07;;;13.60;99.90;;;;;;5057098;28;20508;-81
2021/12/30 07:43:42;;;;;;;10.00;9.00;;;13.60;99.90;;;;;;5057820;28;20464;-80
2021/12/30 07:46:11;;;;;;;11.43;9.90;;;13.60;99.90;;;;;;5040709;28;20464;-80
2021/12/30 07:48:38;;;;;;;10.93;9.83;;;13.60;99.90;;;;;;5036828;28;20510;-81
2021/12/30 07:51:04;;;;;;;10.33;9.30;;;13.60;99.90;;;;;;5036906;28;20522;-81
2021/12/30 07:53:32;;;;;;;9.83;8.00;;;13.60;99.90;;;;;;5036292;28;20463;-81
2021/12/30 07:56:01;;;;;;;9.20;8.40;;;13.60;99.90;;;;;;5036897;28;20983;-81
2021/12/30 07:58:28;;;;;;;11.10;9.80;;;13.70;99.90;;;;;;5035783;28;20453;-81
2021/12/30 08:00:55;;;;;;;11.40;10.20;;;13.70;99.90;;;;;;5036393;28;20494;-80
2021/12/30 08:03:24;;;;;;;10.87;8.83;;;13.60;99.90;;;;;;5036783;28;21021;-80
2021/12/30 08:05:51;;;;;;;10.10;9.00;;;13.60;99.90;;;;;;5036754;28;20871;-81
2021/12/30 08:08:18;;;;;;;10.50;8.90;;;13.60;99.90;;;;;;5036796;28;20861;-80
2021/12/30 08:10:45;;;;;;;9.00;8.10;;;13.60;99.90;;;;;;5036894;28;20445;-81
2021/12/30 08:13:12;;;;;;;9.43;8.53;;;13.70;99.90;;;;;;5036751;28;20471;-80
2021/12/30 08:15:39;;;;;;;10.17;9.23;;;13.70;99.90;;;;;;5039618;28;20458;-81
2021/12/30 08:18:05;;;;;;;10.90;9.77;;;13.60;99.90;;;;;;5031397;28;21037;-80
2021/12/30 08:20:34;;;;;;;11.10;9.47;;;13.60;99.90;;;;;;5034408;28;20492;-80
2021/12/30 08:23:00;;;;;;;12.90;9.23;;;13.60;99.90;;;;;;5035403;28;20468;-81
2021/12/30 08:25:27;;;;;;;10.50;8.70;;;13.60;99.90;;;;;;5035360;28;20450;-80
2021/12/30 08:27:55;;;;;;;11.30;8.83;;;13.60;99.90;;;;;;5033023;28;20838;-80
2021/12/30 08:30:23;;;;;;;12.20;9.93;;;13.60;99.90;;;;;;5040378;28;20836;-79
2021/12/30 08:32:51;;;;;;;10.07;8.30;;;13.70;99.90;;;;;;5041353;28;20490;-79
2021/12/30 08:35:20;;;;;;;9.67;8.67;;;13.70;99.90;;;;;;5035344;28;20983;-81
2021/12/30 08:37:50;;;;;;;12.13;9.93;;;13.70;99.90;;;;;;5036126;28;20819;-81
2021/12/30 08:40:18;;;;;;;13.17;10.40;;;13.70;99.90;;;;;;5034719;28;20501;-80
2021/12/30 08:42:46;;;;;;;9.33;8.33;;;13.70;99.90;;;;;;5037082;28;20458;-79
2021/12/30 08:45:14;;;;;;;10.53;9.43;;;13.70;99.90;;;;;;5034151;28;20826;-79
2021/12/30 08:47:41;;;;;;;11.63;7.97;;;13.70;99.90;;;;;;5034241;28;20453;-80
2021/12/30 08:50:11;;;;;;;11.70;10.23;;;13.80;99.90;;;;;;5031222;28;20482;-81
2021/12/30 08:52:38;;;;;;;11.17;8.47;;;13.70;99.90;;;;;;5037950;28;20449;-81
2021/12/30 08:55:08;;;;;;;10.00;8.20;;;13.70;99.90;;;;;;5040554;28;20531;-79
2021/12/30 08:57:38;;;;;;;11.27;9.50;;;13.70;99.90;;;;;;5038843;28;20461;-81
2021/12/30 09:00:08;;;;;;;12.33;9.73;;;13.70;99.90;;;;;;5033718;28;20555;-79
2021/12/30 09:02:35;;;;;;;11.23;8.80;;;13.70;99.90;;;;;;5029287;28;20464;-80
2021/12/30 09:05:02;;;;;;;8.33;7.00;;;13.70;99.90;;;;;;5031450;28;20471;-80
2021/12/30 09:07:28;;;;;;;9.97;7.27;;;13.70;99.90;;;;;;5052012;28;20539;-82
2021/12/30 09:09:55;;;;;;;7.90;6.23;;;13.70;99.90;;;;;;5039030;28;20453;-81
2021/12/30 09:12:24;;;;;;;10.27;7.27;;;13.70;99.90;;;;;;5034442;28;20461;-80
2021/12/30 09:14:51;;;;;;;8.30;6.30;;;13.80;99.90;;;;;;5030773;28;20487;-80
2021/12/30 09:17:17;;;;;;;11.83;7.70;;;13.80;99.90;;;;;;5035964;28;20468;-80
2021/12/30 09:19:44;;;;;;;9.47;7.30;;;13.70;99.90;;;;;;5055531;28;20565;-80
2021/12/30 09:22:11;;;;;;;9.40;7.83;;;13.70;99.90;;;;;;5055142;28;20463;-81
2021/12/30 09:24:38;;;;;;;8.23;7.03;;;13.70;99.90;;;;;;5037950;28;20479;-80
2021/12/30 09:27:05;;;;;;;8.83;6.40;;;13.80;99.90;;;;;;5028110;28;20467;-81
2021/12/30 09:29:33;;;;;;;11.30;7.60;;;13.80;99.90;;;;;;5027585;28;20464;-81
2021/12/30 09:32:00;;;;;;;12.03;7.77;;;13.80;99.90;;;;;;5025562;28;20518;-81
2021/12/30 09:34:27;;;;;;;10.70;7.30;;;13.90;99.90;;;;;;5030412;28;20559;-81
2021/12/30 09:36:53;;;;;;;11.73;8.90;;;13.90;99.90;;;;;;5033330;28;20543;-79
2021/12/30 09:39:20;;;;;;;10.80;9.13;;;13.90;99.90;;;;;;5032917;28;20535;-80
2021/12/30 09:41:47;;;;;;;10.97;9.73;;;14.00;99.90;;;;;;5032459;28;20481;-80
2021/12/30 09:44:17;;;;;;;10.63;7.77;;;14.10;99.90;;;;;;5032250;28;20472;-79
2021/12/30 09:46:46;;;;;;;7.57;6.17;;;14.30;99.90;;;;;;5023936;28;20544;-80
2021/12/30 09:49:17;;;;;;;5.50;4.60;;;14.30;99.90;;;;;;5022670;28;20467;-80
2021/12/30 09:51:44;;;;;;;5.80;3.90;;;14.20;99.90;;;;;;5039414;28;20582;-79
2021/12/30 09:54:12;;;;;;;5.30;4.10;;;14.20;99.90;;;;;;5057740;28;20485;-79
2021/12/30 09:56:39;;;;;;;4.60;2.90;;;14.10;99.90;;;;;;5042050;28;20455;-80
2021/12/30 09:59:08;;;;;;;3.73;3.20;;;14.20;99.90;;;;;;5051344;28;20836;-79
2021/12/30 10:01:36;;;;;;;4.13;3.10;;;14.30;99.90;;;;;;5044779;28;20570;-80
2021/12/30 10:04:05;;;;;;;4.00;3.30;;;14.40;99.90;;;;;;5058008;28;20488;-81
2021/12/30 10:06:34;;;;;;;4.93;3.70;;;14.50;99.90;;;;;;5043285;28;20998;-79
2021/12/30 10:09:05;;;;;;;4.50;3.13;;;14.60;99.90;;;;;;5038416;28;20978;-80
2021/12/30 10:11:42;;;;;;;2.47;2.10;;;14.70;99.90;;;;;;5043378;28;20476;-80
2021/12/30 10:14:09;;;;;;;4.43;2.20;;;14.60;99.90;;;;;;5055495;28;20474;-80
2021/12/30 10:16:36;;;;;;;3.33;2.10;;;14.60;99.90;;;;;;5038889;28;20452;-81
2021/12/30 10:19:05;;;;;;;3.30;2.20;;;14.70;99.90;;;;;;5058886;28;20518;-80
2021/12/30 10:21:35;;;;;;;3.50;2.03;;;14.80;99.90;;;;;;5058126;28;20490;-80
2021/12/30 10:24:06;;;;;;;3.33;1.50;;;14.90;99.90;;;;;;5039600;28;20556;-79
2021/12/30 10:26:48;;;;;;;2.30;1.70;;;14.80;99.90;;;;;;5037680;28;20453;-80
2021/12/30 10:29:15;;;;;;;2.20;1.50;;;14.80;99.90;;;;;;5037945;28;20844;-80
2021/12/30 10:31:43;;;;;;;4.20;2.03;;;14.70;99.90;;;;;;5047463;28;20464;-80
2021/12/30 10:34:12;;;;;;;2.87;1.80;;;14.70;99.90;;;;;;5044938;28;20474;-80
2021/12/30 10:36:42;;;;;;;3.10;2.33;;;14.60;99.90;;;;;;5042854;28;20815;-82
2021/12/30 10:39:19;;;;;;;4.63;2.00;;;14.60;99.90;;;;;;5046455;28;20457;-82
2021/12/30 10:41:47;;;;;;;4.47;2.37;;;14.60;99.90;;;;;;5050729;28;20484;-81
2021/12/30 10:44:15;;;;;;;2.47;2.10;;;14.60;99.90;;;;;;5029385;28;20555;-79
2021/12/30 10:46:42;;;;;;;2.67;1.80;;;14.70;99.90;;;;;;5033993;28;20568;-79
2021/12/30 10:49:12;;;;;;;3.40;2.27;;;14.90;99.90;;;;;;5024486;28;20449;-81
2021/12/30 10:51:41;;;;;;;3.50;2.03;;;15.00;99.90;;;;;;5024468;28;20452;-81
2021/12/30 10:54:17;;;;;;;2.67;1.87;;;15.10;99.90;;;;;;5036583;28;20474;-79
2021/12/30 10:56:46;;;;;;;2.90;1.77;;;15.00;99.90;;;;;;5024407;28;20455;-79
2021/12/30 10:59:22;;;;;;;12.40;7.07;;;15.20;99.90;;;;;;5035435;28;20453;-81
2021/12/30 11:01:55;;;;;;;2.67;2.23;;;15.10;99.90;;;;;;5048917;28;20475;-80
2021/12/30 11:04:36;;;;;;;4.87;1.40;;;15.20;99.90;;;;;;5020802;28;20470;-81
2021/12/30 11:07:04;;;;;;;3.33;2.00;;;15.30;99.90;;;;;;5033775;28;20454;-79
2021/12/30 11:09:31;;;;;;;5.90;2.20;;;15.30;99.90;;;;;;5033083;28;20874;-79
2021/12/30 11:11:59;;;;;;;2.67;2.10;;;15.30;99.90;;;;;;5036800;28;20449;-79
2021/12/30 11:14:29;;;;;;;3.10;2.13;;;15.30;99.90;;;;;;5034616;28;20469;-79
2021/12/30 11:17:11;;;;;;;4.43;1.70;;;15.50;99.90;;;;;;5026716;28;20982;-80
2021/12/30 11:19:41;;;;;;;2.77;1.70;;;15.40;99.90;;;;;;5023870;28;20448;-80
2021/12/30 11:22:11;;;;;;;11.20;2.60;;;15.40;99.90;;;;;;5027900;28;20473;-82
2021/12/30 11:24:39;;;;;;;2.47;1.63;;;15.30;99.90;;;;;;5028134;28;20469;-82
2021/12/30 11:27:08;;;;;;;2.47;1.80;;;15.50;99.90;;;;;;5027236;28;20453;-81
2021/12/30 11:29:36;;;;;;;2.73;1.87;;;15.70;99.90;;;;;;5031876;28;20817;-81
2021/12/30 11:32:06;;;;;;;2.80;1.50;;;16.40;99.90;;;;;;5037829;28;20954;-80
2021/12/30 11:34:33;;;;;;;3.73;1.70;;;16.90;99.90;;;;;;5035930;28;20468;-84
2021/12/30 11:37:02;;;;;;;2.43;1.50;;;16.70;99.90;;;;;;5029617;28;20456;-81
2021/12/30 11:39:29;;;;;;;3.50;1.87;;;16.50;99.90;;;;;;5018168;28;20963;-79
2021/12/30 11:42:00;;;;;;;3.50;1.90;;;16.20;99.90;;;;;;5021076;28;20496;-81
2021/12/30 11:44:41;;;;;;;5.70;1.63;;;15.90;99.90;;;;;;5035128;28;20467;-81
2021/12/30 11:47:10;;;;;;;6.80;3.53;;;16.10;99.90;;;;;;5023173;28;20447;-81
2021/12/30 11:49:55;;;;;;;7.60;4.20;;;16.60;99.90;;;;;;5017635;28;20921;-80
2021/12/30 11:52:49;;;;;;;7.20;2.47;;;16.80;99.90;;;;;;5031189;28;20455;-79
2021/12/30 11:55:46;;;;;;;3.03;1.83;;;16.70;99.90;;;;;;5030888;28;20532;-79
2021/12/30 11:58:44;;;;;;;2.80;1.60;;;16.30;99.90;;;;;;5028772;28;20450;-82
2021/12/30 12:01:32;;;;;;;3.83;1.80;;;16.00;99.90;;;;;;5021999;28;20493;-83
2021/12/30 12:04:02;;;;;;;4.13;1.77;;;15.70;99.90;;;;;;5020180;28;20481;-82
2021/12/30 12:06:32;;;;;;;7.93;2.20;;;15.50;99.90;;;;;;5039283;28;21063;-80
2021/12/30 12:09:04;;;;;;;4.50;2.30;;;15.40;99.90;;;;;;5017330;28;20927;-81
2021/12/30 12:11:32;;;;;;;6.23;2.80;;;15.30;99.90;;;;;;5023445;28;21028;-81
2021/12/30 12:14:14;;;;;;;5.67;2.60;;;15.20;99.90;;;;;;5016413;28;20507;-81
2021/12/30 12:16:47;;;;;;;3.93;2.30;;;15.20;99.90;;;;;;5033637;28;20496;-80
2021/12/30 12:19:15;;;;;;;4.87;2.33;;;15.10;99.90;;;;;;5032759;28;20516;-80
2021/12/30 12:21:45;;;;;;;5.20;2.37;;;15.10;99.90;;;;;;5027743;28;20488;-81
2021/12/30 12:24:38;;;;;;;4.53;2.00;;;15.10;99.90;;;;;;5026707;28;20468;-81
2021/12/30 12:27:08;;;;;;;3.70;1.70;;;15.00;99.90;;;;;;5025413;28;20455;-80
2021/12/30 12:29:44;;;;;;;4.57;2.60;;;15.00;99.90;;;;;;5028300;28;20469;-82
2021/12/30 12:32:14;;;;;;;4.33;2.30;;;15.00;99.90;;;;;;5028796;28;20451;-81
2021/12/30 12:34:43;;;;;;;4.07;2.30;;;15.00;99.90;;;;;;5030213;28;20551;-81
2021/12/30 12:37:45;;;;;;;3.93;2.27;;;15.00;99.90;;;;;;5030860;28;20870;-80
2021/12/30 12:40:23;;;;;;;3.13;2.10;;;15.00;99.90;;;;;;5022925;28;20447;-82
2021/12/30 12:42:59;;;;;;;11.40;8.90;;;15.00;99.90;;;;;;5026212;28;20454;-81
2021/12/30 12:45:30;;;;;;;5.37;2.50;;;15.00;99.90;;;;;;5026820;28;20884;-81
2021/12/30 12:48:35;;;;;;;6.00;2.07;;;15.10;99.90;;;;;;5035108;28;20527;-82
2021/12/30 12:51:06;;;;;;;3.83;2.20;;;15.10;99.90;;;;;;5017319;28;20452;-81